sensor_id;sensor_type;location;lat;lon;timestamp;temperature;humidity
3478;DHT22;37937;61.490;23.506;2022-07-03T00:02:05;19.40;99.90
3478;DHT22;37937;61.490;23.506;2022-07-03T00:04:30;19.70;99.90
3478;DHT22;37937;61.490;23.506;2022-07-03T00:06:56;19.70;99.90
3478;DHT22;37937;61.490;23.506;2022-07-03T00:09:22;19.70;99.90
3478;DHT22;37937;61.490;23.506;2022-07-03T00:11:47;19.50;99.90
3478;DHT22;37937;61.490;23.506;2022-07-03T00:14:13;19.50;99.90
3478;DHT22;37937;61.490;23.506;2022-07-03T00:16:39;19.40;99.90
3478;DHT22;37937;61.490;23.506;2022-07-03T00:19:04;19.50;99.90
3478;DHT22;37937;61.490;23.506;2022-07-03T00:21:47;19.40;99.90
3478;DHT22;37937;61.490;23.506;2022-07-03T00:26:45;19.40;99.90
3478;DHT22;37937;61.490;23.506;2022-07-03T00:29:14;19.30;99.90
3478;DHT22;37937;61.490;23.506;2022-07-03T00:31:40;19.20;99.90
3478;DHT22;37937;61.490;23.506;2022-07-03T00:34:07;19.00;99.90
3478;DHT22;37937;61.490;23.506;2022-07-03T00:36:37;19.00;99.90
3478;DHT22;37937;61.490;23.506;2022-07-03T00:39:03;19.00;99.90
3478;DHT22;37937;61.490;23.506;2022-07-03T00:41:31;19.20;99.90
3478;DHT22;37937;61.490;23.506;2022-07-03T00:43:57;19.20;99.90
3478;DHT22;37937;61.490;23.506;2022-07-03T00:46:23;19.00;99.90
3478;DHT22;37937;61.490;23.506;2022-07-03T00:48:50;19.10;99.90
3478;DHT22;37937;61.490;23.506;2022-07-03T00:51:18;19.30;99.90
3478;DHT22;37937;61.490;23.506;2022-07-03T00:53:45;19.40;99.90
3478;DHT22;37937;61.490;23.506;2022-07-03T00:56:11;19.30;99.90
3478;DHT22;37937;61.490;23.506;2022-07-03T00:58:39;19.30;99.90
3478;DHT22;37937;61.490;23.506;2022-07-03T01:01:06;19.30;99.90
3478;DHT22;37937;61.490;23.506;2022-07-03T01:03:32;19.20;99.90
3478;DHT22;37937;61.490;23.506;2022-07-03T01:06:02;19.10;99.90
3478;DHT22;37937;61.490;23.506;2022-07-03T01:08:36;19.30;99.90
3478;DHT22;37937;61.490;23.506;2022-07-03T01:11:25;19.20;99.90
3478;DHT22;37937;61.490;23.506;2022-07-03T01:16:38;19.30;99.90
3478;DHT22;37937;61.490;23.506;2022-07-03T01:19:49;19.10;99.90
3478;DHT22;37937;61.490;23.506;2022-07-03T01:27:04;19.10;99.90
3478;DHT22;37937;61.490;23.506;2022-07-03T01:29:35;19.10;99.90
3478;DHT22;37937;61.490;23.506;2022-07-03T01:32:03;19.00;99.90
3478;DHT22;37937;61.490;23.506;2022-07-03T01:34:30;18.90;99.90
3478;DHT22;37937;61.490;23.506;2022-07-03T01:36:58;18.90;99.90
3478;DHT22;37937;61.490;23.506;2022-07-03T01:39:26;18.70;99.90
3478;DHT22;37937;61.490;23.506;2022-07-03T01:41:52;18.60;99.90
3478;DHT22;37937;61.490;23.506;2022-07-03T01:44:18;18.70;99.90
3478;DHT22;37937;61.490;23.506;2022-07-03T01:46:46;18.70;99.90
3478;DHT22;37937;61.490;23.506;2022-07-03T01:49:12;18.70;99.90
3478;DHT22;37937;61.490;23.506;2022-07-03T01:51:39;18.60;99.90
3478;DHT22;37937;61.490;23.506;2022-07-03T01:54:05;18.60;99.90
3478;DHT22;37937;61.490;23.506;2022-07-03T01:56:32;18.50;99.90
3478;DHT22;37937;61.490;23.506;2022-07-03T01:58:58;18.40;99.90
3478;DHT22;37937;61.490;23.506;2022-07-03T02:01:31;18.30;99.90
3478;DHT22;37937;61.490;23.506;2022-07-03T02:04:02;18.30;99.90
3478;DHT22;37937;61.490;23.506;2022-07-03T02:06:36;18.00;99.90
3478;DHT22;37937;61.490;23.506;2022-07-03T02:09:04;17.80;99.90
3478;DHT22;37937;61.490;23.506;2022-07-03T02:11:35;18.00;99.90
3478;DHT22;37937;61.490;23.506;2022-07-03T02:14:06;18.20;99.90
3478;DHT22;37937;61.490;23.506;2022-07-03T02:16:40;18.20;99.90
3478;DHT22;37937;61.490;23.506;2022-07-03T02:19:08;18.30;99.90
3478;DHT22;37937;61.490;23.506;2022-07-03T02:21:36;18.30;99.90
3478;DHT22;37937;61.490;23.506;2022-07-03T02:26:33;18.20;99.90
3478;DHT22;37937;61.490;23.506;2022-07-03T02:29:03;18.10;99.90
3478;DHT22;37937;61.490;23.506;2022-07-03T02:31:31;18.10;99.90
3478;DHT22;37937;61.490;23.506;2022-07-03T02:33:58;18.00;99.90
3478;DHT22;37937;61.490;23.506;2022-07-03T02:36:25;18.10;99.90
3478;DHT22;37937;61.490;23.506;2022-07-03T02:38:54;18.00;99.90
3478;DHT22;37937;61.490;23.506;2022-07-03T02:41:25;18.00;99.90
3478;DHT22;37937;61.490;23.506;2022-07-03T02:44:04;18.10;99.90
3478;DHT22;37937;61.490;23.506;2022-07-03T02:46:49;18.10;99.90
3478;DHT22;37937;61.490;23.506;2022-07-03T02:51:48;18.00;99.90
3478;DHT22;37937;61.490;23.506;2022-07-03T02:54:16;17.90;99.90
3478;DHT22;37937;61.490;23.506;2022-07-03T02:56:47;17.80;99.90
3478;DHT22;37937;61.490;23.506;2022-07-03T02:59:22;17.90;99.90
3478;DHT22;37937;61.490;23.506;2022-07-03T03:04:28;17.80;99.90
3478;DHT22;37937;61.490;23.506;2022-07-03T03:07:00;17.70;99.90
3478;DHT22;37937;61.490;23.506;2022-07-03T03:09:27;17.60;99.90
3478;DHT22;37937;61.490;23.506;2022-07-03T03:11:56;17.60;99.90
3478;DHT22;37937;61.490;23.506;2022-07-03T03:14:26;17.60;99.90
3478;DHT22;37937;61.490;23.506;2022-07-03T03:16:55;17.50;99.90
3478;DHT22;37937;61.490;23.506;2022-07-03T03:19:21;17.50;99.90
3478;DHT22;37937;61.490;23.506;2022-07-03T03:24:34;17.60;99.90
3478;DHT22;37937;61.490;23.506;2022-07-03T03:27:00;17.70;99.90
3478;DHT22;37937;61.490;23.506;2022-07-03T03:29:26;17.80;99.90
3478;DHT22;37937;61.490;23.506;2022-07-03T03:31:51;17.90;99.90
3478;DHT22;37937;61.490;23.506;2022-07-03T03:34:17;18.10;99.90
3478;DHT22;37937;61.490;23.506;2022-07-03T03:36:43;18.30;99.90
3478;DHT22;37937;61.490;23.506;2022-07-03T03:39:09;18.50;99.90
3478;DHT22;37937;61.490;23.506;2022-07-03T03:41:35;18.80;99.90
3478;DHT22;37937;61.490;23.506;2022-07-03T03:44:00;18.80;99.90
3478;DHT22;37937;61.490;23.506;2022-07-03T03:46:26;18.80;99.90
3478;DHT22;37937;61.490;23.506;2022-07-03T03:48:51;19.00;99.90
3478;DHT22;37937;61.490;23.506;2022-07-03T03:51:17;19.00;99.90
3478;DHT22;37937;61.490;23.506;2022-07-03T03:53:43;19.20;99.90
3478;DHT22;37937;61.490;23.506;2022-07-03T03:56:10;19.30;99.90
3478;DHT22;37937;61.490;23.506;2022-07-03T03:58:37;19.50;99.90
3478;DHT22;37937;61.490;23.506;2022-07-03T04:01:04;19.60;99.90
3478;DHT22;37937;61.490;23.506;2022-07-03T04:03:30;19.50;99.90
3478;DHT22;37937;61.490;23.506;2022-07-03T04:05:56;19.60;99.90
3478;DHT22;37937;61.490;23.506;2022-07-03T04:08:22;19.70;99.90
3478;DHT22;37937;61.490;23.506;2022-07-03T04:10:48;20.20;99.90
3478;DHT22;37937;61.490;23.506;2022-07-03T04:13:14;20.60;99.90
3478;DHT22;37937;61.490;23.506;2022-07-03T04:15:40;21.00;99.90
3478;DHT22;37937;61.490;23.506;2022-07-03T04:18:06;21.60;99.90
3478;DHT22;37937;61.490;23.506;2022-07-03T04:20:32;22.30;99.90
3478;DHT22;37937;61.490;23.506;2022-07-03T04:22:58;22.90;99.90
3478;DHT22;37937;61.490;23.506;2022-07-03T04:25:23;23.30;99.90
3478;DHT22;37937;61.490;23.506;2022-07-03T04:27:49;23.50;99.90
3478;DHT22;37937;61.490;23.506;2022-07-03T04:30:15;23.90;99.90
3478;DHT22;37937;61.490;23.506;2022-07-03T04:32:40;24.60;99.90
3478;DHT22;37937;61.490;23.506;2022-07-03T04:35:06;24.90;99.90
3478;DHT22;37937;61.490;23.506;2022-07-03T04:37:32;25.10;99.90
3478;DHT22;37937;61.490;23.506;2022-07-03T04:39:58;25.40;99.90
3478;DHT22;37937;61.490;23.506;2022-07-03T04:42:23;25.30;99.90
3478;DHT22;37937;61.490;23.506;2022-07-03T04:44:49;25.80;99.90
3478;DHT22;37937;61.490;23.506;2022-07-03T04:47:14;26.20;99.90
3478;DHT22;37937;61.490;23.506;2022-07-03T04:49:41;26.10;99.90
3478;DHT22;37937;61.490;23.506;2022-07-03T04:52:07;26.40;99.90
3478;DHT22;37937;61.490;23.506;2022-07-03T04:54:32;26.50;99.90
3478;DHT22;37937;61.490;23.506;2022-07-03T04:56:58;26.30;99.90
3478;DHT22;37937;61.490;23.506;2022-07-03T04:59:24;26.30;99.90
3478;DHT22;37937;61.490;23.506;2022-07-03T05:01:49;27.10;99.90
3478;DHT22;37937;61.490;23.506;2022-07-03T05:04:15;26.70;99.90
3478;DHT22;37937;61.490;23.506;2022-07-03T05:06:41;27.20;99.90
3478;DHT22;37937;61.490;23.506;2022-07-03T05:09:07;27.50;99.90
3478;DHT22;37937;61.490;23.506;2022-07-03T05:11:32;27.60;99.90
3478;DHT22;37937;61.490;23.506;2022-07-03T05:13:58;27.30;99.90
3478;DHT22;37937;61.490;23.506;2022-07-03T05:16:23;27.50;99.90
3478;DHT22;37937;61.490;23.506;2022-07-03T05:18:49;26.70;99.90
3478;DHT22;37937;61.490;23.506;2022-07-03T05:21:15;27.70;99.90
3478;DHT22;37937;61.490;23.506;2022-07-03T05:23:40;27.70;94.20
3478;DHT22;37937;61.490;23.506;2022-07-03T05:26:06;27.90;99.10
3478;DHT22;37937;61.490;23.506;2022-07-03T05:28:31;28.10;99.90
3478;DHT22;37937;61.490;23.506;2022-07-03T05:30:57;27.60;93.10
3478;DHT22;37937;61.490;23.506;2022-07-03T05:33:23;27.40;99.90
3478;DHT22;37937;61.490;23.506;2022-07-03T05:35:48;27.70;99.90
3478;DHT22;37937;61.490;23.506;2022-07-03T05:38:14;28.40;81.30
3478;DHT22;37937;61.490;23.506;2022-07-03T05:40:59;28.50;97.80
3478;DHT22;37937;61.490;23.506;2022-07-03T05:43:25;28.80;90.00
3478;DHT22;37937;61.490;23.506;2022-07-03T05:45:51;29.10;69.30
3478;DHT22;37937;61.490;23.506;2022-07-03T05:48:16;29.10;50.30
3478;DHT22;37937;61.490;23.506;2022-07-03T05:50:42;29.00;68.00
3478;DHT22;37937;61.490;23.506;2022-07-03T05:53:07;28.70;68.50
3478;DHT22;37937;61.490;23.506;2022-07-03T05:55:33;28.90;81.10
3478;DHT22;37937;61.490;23.506;2022-07-03T05:57:58;29.10;41.00
3478;DHT22;37937;61.490;23.506;2022-07-03T06:00:24;28.50;55.70
3478;DHT22;37937;61.490;23.506;2022-07-03T06:02:50;28.80;80.80
3478;DHT22;37937;61.490;23.506;2022-07-03T06:05:15;28.90;55.70
3478;DHT22;37937;61.490;23.506;2022-07-03T06:07:41;29.10;44.60
3478;DHT22;37937;61.490;23.506;2022-07-03T06:10:06;29.30;46.60
3478;DHT22;37937;61.490;23.506;2022-07-03T06:12:32;28.50;65.90
3478;DHT22;37937;61.490;23.506;2022-07-03T06:14:58;28.90;48.10
3478;DHT22;37937;61.490;23.506;2022-07-03T06:17:23;29.10;51.80
3478;DHT22;37937;61.490;23.506;2022-07-03T06:19:49;28.90;27.90
3478;DHT22;37937;61.490;23.506;2022-07-03T06:22:15;28.90;32.90
3478;DHT22;37937;61.490;23.506;2022-07-03T06:24:40;28.80;48.30
3478;DHT22;37937;61.490;23.506;2022-07-03T06:27:06;29.00;40.70
3478;DHT22;37937;61.490;23.506;2022-07-03T06:29:31;29.00;42.20
3478;DHT22;37937;61.490;23.506;2022-07-03T06:31:57;28.70;52.80
3478;DHT22;37937;61.490;23.506;2022-07-03T06:34:23;28.40;56.60
3478;DHT22;37937;61.490;23.506;2022-07-03T06:36:48;27.90;38.90
3478;DHT22;37937;61.490;23.506;2022-07-03T06:39:14;28.30;45.70
3478;DHT22;37937;61.490;23.506;2022-07-03T06:41:39;28.40;43.30
3478;DHT22;37937;61.490;23.506;2022-07-03T06:44:05;28.50;35.90
3478;DHT22;37937;61.490;23.506;2022-07-03T06:46:31;28.80;45.90
3478;DHT22;37937;61.490;23.506;2022-07-03T06:48:56;29.10;23.20
3478;DHT22;37937;61.490;23.506;2022-07-03T06:51:22;29.10;40.40
3478;DHT22;37937;61.490;23.506;2022-07-03T06:53:48;28.50;39.50
3478;DHT22;37937;61.490;23.506;2022-07-03T06:56:13;28.50;42.20
3478;DHT22;37937;61.490;23.506;2022-07-03T06:58:39;28.40;46.40
3478;DHT22;37937;61.490;23.506;2022-07-03T07:01:04;28.60;33.50
3478;DHT22;37937;61.490;23.506;2022-07-03T07:03:30;27.80;46.00
3478;DHT22;37937;61.490;23.506;2022-07-03T07:05:56;28.40;50.30
3478;DHT22;37937;61.490;23.506;2022-07-03T07:08:21;28.10;43.70
3478;DHT22;37937;61.490;23.506;2022-07-03T07:10:47;28.20;47.30
3478;DHT22;37937;61.490;23.506;2022-07-03T07:13:12;28.20;47.60
3478;DHT22;37937;61.490;23.506;2022-07-03T07:15:38;27.80;50.00
3478;DHT22;37937;61.490;23.506;2022-07-03T07:18:04;28.10;46.20
3478;DHT22;37937;61.490;23.506;2022-07-03T07:20:29;27.40;58.40
3478;DHT22;37937;61.490;23.506;2022-07-03T07:22:55;27.90;57.20
3478;DHT22;37937;61.490;23.506;2022-07-03T07:25:20;27.90;51.80
3478;DHT22;37937;61.490;23.506;2022-07-03T07:27:46;28.20;51.40
3478;DHT22;37937;61.490;23.506;2022-07-03T07:30:13;28.20;61.10
3478;DHT22;37937;61.490;23.506;2022-07-03T07:32:38;28.00;46.10
3478;DHT22;37937;61.490;23.506;2022-07-03T07:35:04;27.50;44.90
3478;DHT22;37937;61.490;23.506;2022-07-03T07:37:30;27.80;57.40
3478;DHT22;37937;61.490;23.506;2022-07-03T07:39:56;28.10;36.60
3478;DHT22;37937;61.490;23.506;2022-07-03T07:42:21;27.50;45.40
3478;DHT22;37937;61.490;23.506;2022-07-03T07:44:48;27.80;40.90
3478;DHT22;37937;61.490;23.506;2022-07-03T07:47:13;27.90;31.70
3478;DHT22;37937;61.490;23.506;2022-07-03T07:49:39;28.00;57.40
3478;DHT22;37937;61.490;23.506;2022-07-03T07:52:05;27.80;32.60
3478;DHT22;37937;61.490;23.506;2022-07-03T07:54:30;27.60;27.70
3478;DHT22;37937;61.490;23.506;2022-07-03T07:56:56;27.30;27.50
3478;DHT22;37937;61.490;23.506;2022-07-03T07:59:21;28.30;29.00
3478;DHT22;37937;61.490;23.506;2022-07-03T08:01:47;28.80;23.00
3478;DHT22;37937;61.490;23.506;2022-07-03T08:04:31;28.40;22.50
3478;DHT22;37937;61.490;23.506;2022-07-03T08:07:15;28.40;24.50
3478;DHT22;37937;61.490;23.506;2022-07-03T08:09:41;28.70;19.60
3478;DHT22;37937;61.490;23.506;2022-07-03T08:12:07;28.20;39.90
3478;DHT22;37937;61.490;23.506;2022-07-03T08:14:32;28.20;51.10
3478;DHT22;37937;61.490;23.506;2022-07-03T08:16:58;28.00;49.60
3478;DHT22;37937;61.490;23.506;2022-07-03T08:19:23;28.20;59.40
3478;DHT22;37937;61.490;23.506;2022-07-03T08:21:49;28.50;31.70
3478;DHT22;37937;61.490;23.506;2022-07-03T08:24:15;28.80;35.00
3478;DHT22;37937;61.490;23.506;2022-07-03T08:26:41;29.00;40.00
3478;DHT22;37937;61.490;23.506;2022-07-03T08:29:07;28.80;25.80
3478;DHT22;37937;61.490;23.506;2022-07-03T08:31:32;28.10;42.20
3478;DHT22;37937;61.490;23.506;2022-07-03T08:33:58;28.20;40.20
3478;DHT22;37937;61.490;23.506;2022-07-03T08:36:24;28.20;30.70
3478;DHT22;37937;61.490;23.506;2022-07-03T08:38:49;27.90;50.20
3478;DHT22;37937;61.490;23.506;2022-07-03T08:41:15;28.50;42.20
3478;DHT22;37937;61.490;23.506;2022-07-03T08:43:42;28.80;38.60
3478;DHT22;37937;61.490;23.506;2022-07-03T08:46:07;29.00;29.70
3478;DHT22;37937;61.490;23.506;2022-07-03T08:48:35;29.50;25.70
3478;DHT22;37937;61.490;23.506;2022-07-03T08:51:01;28.90;38.20
3478;DHT22;37937;61.490;23.506;2022-07-03T08:53:27;29.40;27.50
3478;DHT22;37937;61.490;23.506;2022-07-03T08:55:53;29.40;31.50
3478;DHT22;37937;61.490;23.506;2022-07-03T08:58:18;28.70;31.40
3478;DHT22;37937;61.490;23.506;2022-07-03T09:00:46;28.80;31.60
3478;DHT22;37937;61.490;23.506;2022-07-03T09:03:12;29.00;37.50
3478;DHT22;37937;61.490;23.506;2022-07-03T09:05:39;29.20;42.00
3478;DHT22;37937;61.490;23.506;2022-07-03T09:08:08;28.70;35.40
3478;DHT22;37937;61.490;23.506;2022-07-03T09:10:34;28.90;44.00
3478;DHT22;37937;61.490;23.506;2022-07-03T09:13:00;28.70;25.50
3478;DHT22;37937;61.490;23.506;2022-07-03T09:15:26;28.90;29.80
3478;DHT22;37937;61.490;23.506;2022-07-03T09:18:04;29.30;15.50
3478;DHT22;37937;61.490;23.506;2022-07-03T09:20:32;29.30;22.00
3478;DHT22;37937;61.490;23.506;2022-07-03T09:23:17;29.50;21.40
3478;DHT22;37937;61.490;23.506;2022-07-03T09:25:53;29.70;14.60
3478;DHT22;37937;61.490;23.506;2022-07-03T09:28:20;29.20;15.00
3478;DHT22;37937;61.490;23.506;2022-07-03T09:31:01;29.60;26.40
3478;DHT22;37937;61.490;23.506;2022-07-03T09:33:27;29.70;26.30
3478;DHT22;37937;61.490;23.506;2022-07-03T09:35:53;30.20;20.30
3478;DHT22;37937;61.490;23.506;2022-07-03T09:38:20;29.50;17.20
3478;DHT22;37937;61.490;23.506;2022-07-03T09:40:47;29.00;15.50
3478;DHT22;37937;61.490;23.506;2022-07-03T09:43:13;29.40;21.30
3478;DHT22;37937;61.490;23.506;2022-07-03T09:45:52;29.00;16.80
3478;DHT22;37937;61.490;23.506;2022-07-03T09:48:30;28.60;18.30
3478;DHT22;37937;61.490;23.506;2022-07-03T09:53:44;29.30;15.80
3478;DHT22;37937;61.490;23.506;2022-07-03T09:56:09;28.90;18.60
3478;DHT22;37937;61.490;23.506;2022-07-03T09:58:35;28.40;27.10
3478;DHT22;37937;61.490;23.506;2022-07-03T10:01:20;28.90;19.60
3478;DHT22;37937;61.490;23.506;2022-07-03T10:03:46;28.70;27.40
3478;DHT22;37937;61.490;23.506;2022-07-03T10:06:13;28.60;23.20
3478;DHT22;37937;61.490;23.506;2022-07-03T10:08:38;28.30;18.70
3478;DHT22;37937;61.490;23.506;2022-07-03T10:11:04;27.80;22.90
3478;DHT22;37937;61.490;23.506;2022-07-03T10:13:31;28.30;17.50
3478;DHT22;37937;61.490;23.506;2022-07-03T10:15:58;28.50;33.10
3478;DHT22;37937;61.490;23.506;2022-07-03T10:18:23;28.50;26.60
3478;DHT22;37937;61.490;23.506;2022-07-03T10:20:51;28.20;21.00
3478;DHT22;37937;61.490;23.506;2022-07-03T10:23:21;28.30;36.30
3478;DHT22;37937;61.490;23.506;2022-07-03T10:25:47;28.90;30.40
3478;DHT22;37937;61.490;23.506;2022-07-03T10:28:15;29.50;18.10
3478;DHT22;37937;61.490;23.506;2022-07-03T10:30:44;29.60;24.70
3478;DHT22;37937;61.490;23.506;2022-07-03T10:33:10;29.50;18.50
3478;DHT22;37937;61.490;23.506;2022-07-03T10:35:36;29.50;22.80
3478;DHT22;37937;61.490;23.506;2022-07-03T10:43:28;30.30;18.90
3478;DHT22;37937;61.490;23.506;2022-07-03T10:46:14;29.80;9.80
3478;DHT22;37937;61.490;23.506;2022-07-03T10:51:25;30.60;13.00
3478;DHT22;37937;61.490;23.506;2022-07-03T10:54:08;30.80;5.30
3478;DHT22;37937;61.490;23.506;2022-07-03T10:59:20;30.50;10.50
3478;DHT22;37937;61.490;23.506;2022-07-03T11:01:47;29.90;5.00
3478;DHT22;37937;61.490;23.506;2022-07-03T11:04:12;30.20;13.30
3478;DHT22;37937;61.490;23.506;2022-07-03T11:09:10;30.00;1.40
3478;DHT22;37937;61.490;23.506;2022-07-03T11:11:43;29.90;10.00
3478;DHT22;37937;61.490;23.506;2022-07-03T11:14:21;30.10;11.30
3478;DHT22;37937;61.490;23.506;2022-07-03T11:16:47;29.90;10.50
3478;DHT22;37937;61.490;23.506;2022-07-03T11:19:13;30.40;10.00
3478;DHT22;37937;61.490;23.506;2022-07-03T11:21:41;29.40;13.20
3478;DHT22;37937;61.490;23.506;2022-07-03T11:26:33;30.50;8.40
3478;DHT22;37937;61.490;23.506;2022-07-03T11:28:58;30.30;11.60
3478;DHT22;37937;61.490;23.506;2022-07-03T11:31:24;30.30;3.20
3478;DHT22;37937;61.490;23.506;2022-07-03T11:38:47;30.30;10.80
3478;DHT22;37937;61.490;23.506;2022-07-03T11:41:14;30.70;13.20
3478;DHT22;37937;61.490;23.506;2022-07-03T11:43:46;31.60;1.00
3478;DHT22;37937;61.490;23.506;2022-07-03T11:46:16;31.00;1.00
3478;DHT22;37937;61.490;23.506;2022-07-03T11:48:42;31.00;1.70
3478;DHT22;37937;61.490;23.506;2022-07-03T11:51:08;31.40;1.90
3478;DHT22;37937;61.490;23.506;2022-07-03T11:53:34;30.50;5.70
3478;DHT22;37937;61.490;23.506;2022-07-03T11:56:01;30.00;3.50
3478;DHT22;37937;61.490;23.506;2022-07-03T11:58:48;30.20;1.00
3478;DHT22;37937;61.490;23.506;2022-07-03T12:03:48;31.00;6.80
3478;DHT22;37937;61.490;23.506;2022-07-03T12:06:14;31.10;6.10
3478;DHT22;37937;61.490;23.506;2022-07-03T12:08:39;31.30;15.20
3478;DHT22;37937;61.490;23.506;2022-07-03T12:11:07;30.80;2.60
3478;DHT22;37937;61.490;23.506;2022-07-03T12:13:33;29.90;1.00
3478;DHT22;37937;61.490;23.506;2022-07-03T12:16:03;30.50;6.80
3478;DHT22;37937;61.490;23.506;2022-07-03T12:18:50;30.50;1.70
3478;DHT22;37937;61.490;23.506;2022-07-03T12:21:15;30.30;3.20
3478;DHT22;37937;61.490;23.506;2022-07-03T12:23:45;30.20;3.60
3478;DHT22;37937;61.490;23.506;2022-07-03T12:26:11;29.80;9.00
3478;DHT22;37937;61.490;23.506;2022-07-03T12:28:37;30.20;6.60
3478;DHT22;37937;61.490;23.506;2022-07-03T12:31:03;30.20;17.60
3478;DHT22;37937;61.490;23.506;2022-07-03T12:33:29;30.40;7.50
3478;DHT22;37937;61.490;23.506;2022-07-03T12:36:07;30.00;5.60
3478;DHT22;37937;61.490;23.506;2022-07-03T12:38:35;29.80;2.30
3478;DHT22;37937;61.490;23.506;2022-07-03T12:41:05;30.30;1.00
3478;DHT22;37937;61.490;23.506;2022-07-03T12:43:41;29.30;4.20
3478;DHT22;37937;61.490;23.506;2022-07-03T12:48:47;29.50;5.80
3478;DHT22;37937;61.490;23.506;2022-07-03T12:51:13;29.70;10.30
3478;DHT22;37937;61.490;23.506;2022-07-03T12:53:39;30.30;1.50
3478;DHT22;37937;61.490;23.506;2022-07-03T12:56:05;30.00;8.30
3478;DHT22;37937;61.490;23.506;2022-07-03T12:58:33;30.00;1.00
3478;DHT22;37937;61.490;23.506;2022-07-03T13:01:27;29.30;13.50
3478;DHT22;37937;61.490;23.506;2022-07-03T13:03:54;29.00;9.50
3478;DHT22;37937;61.490;23.506;2022-07-03T13:06:20;29.10;13.60
3478;DHT22;37937;61.490;23.506;2022-07-03T13:09:04;29.20;5.30
3478;DHT22;37937;61.490;23.506;2022-07-03T13:14:03;28.90;9.60
3478;DHT22;37937;61.490;23.506;2022-07-03T13:16:29;29.20;19.60
3478;DHT22;37937;61.490;23.506;2022-07-03T13:18:58;29.10;11.70
3478;DHT22;37937;61.490;23.506;2022-07-03T13:21:24;29.50;9.50
3478;DHT22;37937;61.490;23.506;2022-07-03T13:23:49;29.30;6.80
3478;DHT22;37937;61.490;23.506;2022-07-03T13:26:15;29.20;6.20
3478;DHT22;37937;61.490;23.506;2022-07-03T13:28:40;29.00;3.90
3478;DHT22;37937;61.490;23.506;2022-07-03T13:31:06;28.70;9.00
3478;DHT22;37937;61.490;23.506;2022-07-03T13:33:32;29.00;5.30
3478;DHT22;37937;61.490;23.506;2022-07-03T13:35:57;28.40;6.70
3478;DHT22;37937;61.490;23.506;2022-07-03T13:38:23;28.50;9.20
3478;DHT22;37937;61.490;23.506;2022-07-03T13:40:48;28.70;9.60
3478;DHT22;37937;61.490;23.506;2022-07-03T13:43:14;28.60;7.90
3478;DHT22;37937;61.490;23.506;2022-07-03T13:45:42;28.60;7.60
3478;DHT22;37937;61.490;23.506;2022-07-03T13:48:08;28.60;15.40
3478;DHT22;37937;61.490;23.506;2022-07-03T13:50:34;28.70;2.90
3478;DHT22;37937;61.490;23.506;2022-07-03T13:53:00;28.10;3.60
3478;DHT22;37937;61.490;23.506;2022-07-03T13:55:25;27.90;7.30
3478;DHT22;37937;61.490;23.506;2022-07-03T13:57:51;27.70;9.40
3478;DHT22;37937;61.490;23.506;2022-07-03T14:00:17;27.30;12.00
3478;DHT22;37937;61.490;23.506;2022-07-03T14:02:43;27.50;16.70
3478;DHT22;37937;61.490;23.506;2022-07-03T14:05:09;27.20;9.20
3478;DHT22;37937;61.490;23.506;2022-07-03T14:07:34;27.00;6.30
3478;DHT22;37937;61.490;23.506;2022-07-03T14:10:00;26.90;12.10
3478;DHT22;37937;61.490;23.506;2022-07-03T14:12:26;27.00;9.40
3478;DHT22;37937;61.490;23.506;2022-07-03T14:14:51;27.00;10.60
3478;DHT22;37937;61.490;23.506;2022-07-03T14:17:17;26.80;15.60
3478;DHT22;37937;61.490;23.506;2022-07-03T14:19:42;26.70;12.00
3478;DHT22;37937;61.490;23.506;2022-07-03T14:22:08;26.40;14.00
3478;DHT22;37937;61.490;23.506;2022-07-03T14:24:34;26.20;14.00
3478;DHT22;37937;61.490;23.506;2022-07-03T14:26:59;26.20;9.10
3478;DHT22;37937;61.490;23.506;2022-07-03T14:29:43;25.90;9.80
3478;DHT22;37937;61.490;23.506;2022-07-03T14:32:27;26.00;14.50
3478;DHT22;37937;61.490;23.506;2022-07-03T14:35:00;25.70;12.80
3478;DHT22;37937;61.490;23.506;2022-07-03T14:37:26;25.70;9.80
3478;DHT22;37937;61.490;23.506;2022-07-03T14:39:52;25.80;8.00
3478;DHT22;37937;61.490;23.506;2022-07-03T14:42:18;25.70;10.90
3478;DHT22;37937;61.490;23.506;2022-07-03T14:44:44;25.60;8.90
3478;DHT22;37937;61.490;23.506;2022-07-03T14:47:10;25.70;8.00
3478;DHT22;37937;61.490;23.506;2022-07-03T14:49:35;25.50;4.20
3478;DHT22;37937;61.490;23.506;2022-07-03T14:52:01;25.20;6.80
3478;DHT22;37937;61.490;23.506;2022-07-03T14:54:27;25.10;3.60
3478;DHT22;37937;61.490;23.506;2022-07-03T14:56:53;25.30;2.70
3478;DHT22;37937;61.490;23.506;2022-07-03T15:00:05;25.00;1.30
3478;DHT22;37937;61.490;23.506;2022-07-03T15:02:05;25.10;3.00
3478;DHT22;37937;61.490;23.506;2022-07-03T15:05:05;24.90;4.10
3478;DHT22;37937;61.490;23.506;2022-07-03T15:07:23;24.80;4.50
3478;DHT22;37937;61.490;23.506;2022-07-03T15:09:54;24.70;6.00
3478;DHT22;37937;61.490;23.506;2022-07-03T15:12:21;24.60;3.60
3478;DHT22;37937;61.490;23.506;2022-07-03T15:14:54;24.40;2.10
3478;DHT22;37937;61.490;23.506;2022-07-03T15:17:20;24.20;2.80
3478;DHT22;37937;61.490;23.506;2022-07-03T15:19:46;24.10;5.60
3478;DHT22;37937;61.490;23.506;2022-07-03T15:22:13;24.10;10.50
3478;DHT22;37937;61.490;23.506;2022-07-03T15:24:40;24.00;6.70
3478;DHT22;37937;61.490;23.506;2022-07-03T15:27:06;23.90;8.40
3478;DHT22;37937;61.490;23.506;2022-07-03T15:29:32;23.70;4.80
3478;DHT22;37937;61.490;23.506;2022-07-03T15:32:03;23.50;9.80
3478;DHT22;37937;61.490;23.506;2022-07-03T15:34:29;23.50;19.40
3478;DHT22;37937;61.490;23.506;2022-07-03T15:37:02;23.50;21.70
3478;DHT22;37937;61.490;23.506;2022-07-03T15:39:33;23.50;14.20
3478;DHT22;37937;61.490;23.506;2022-07-03T15:45:00;23.50;15.50
3478;DHT22;37937;61.490;23.506;2022-07-03T15:49:56;23.40;15.30
3478;DHT22;37937;61.490;23.506;2022-07-03T15:52:24;23.40;21.30
3478;DHT22;37937;61.490;23.506;2022-07-03T15:54:51;23.40;21.40
3478;DHT22;37937;61.490;23.506;2022-07-03T15:57:32;23.50;22.00
3478;DHT22;37937;61.490;23.506;2022-07-03T16:00:00;23.30;15.50
3478;DHT22;37937;61.490;23.506;2022-07-03T16:02:31;23.30;19.40
3478;DHT22;37937;61.490;23.506;2022-07-03T16:07:24;23.40;27.10
3478;DHT22;37937;61.490;23.506;2022-07-03T16:09:50;23.40;18.30
3478;DHT22;37937;61.490;23.506;2022-07-03T16:12:15;23.20;19.70
3478;DHT22;37937;61.490;23.506;2022-07-03T16:14:47;23.10;18.30
3478;DHT22;37937;61.490;23.506;2022-07-03T16:17:15;23.10;19.30
3478;DHT22;37937;61.490;23.506;2022-07-03T16:19:41;23.00;26.10
3478;DHT22;37937;61.490;23.506;2022-07-03T16:22:08;23.00;17.00
3478;DHT22;37937;61.490;23.506;2022-07-03T16:24:35;23.00;25.50
3478;DHT22;37937;61.490;23.506;2022-07-03T16:27:02;22.90;24.40
3478;DHT22;37937;61.490;23.506;2022-07-03T16:29:28;22.80;18.50
3478;DHT22;37937;61.490;23.506;2022-07-03T16:31:53;22.70;17.20
3478;DHT22;37937;61.490;23.506;2022-07-03T16:34:24;22.70;25.90
3478;DHT22;37937;61.490;23.506;2022-07-03T16:36:54;22.60;18.00
3478;DHT22;37937;61.490;23.506;2022-07-03T16:39:30;22.70;24.10